sensor_id;sensor_type;location;lat;lon;timestamp;P1;durP1;ratioP1;P2;durP2;ratioP2
10295;SDS011;5193;51.032;6.356;2023-05-10T00:00:22;3.70;;;3.40;;
10295;SDS011;5193;51.032;6.356;2023-05-10T00:02:48;3.97;;;3.67;;
10295;SDS011;5193;51.032;6.356;2023-05-10T00:05:14;3.90;;;3.60;;
10295;SDS011;5193;51.032;6.356;2023-05-10T00:07:40;5.53;;;3.67;;
10295;SDS011;5193;51.032;6.356;2023-05-10T00:10:06;4.83;;;4.43;;
10295;SDS011;5193;51.032;6.356;2023-05-10T00:12:31;3.90;;;3.60;;
10295;SDS011;5193;51.032;6.356;2023-05-10T00:14:57;4.10;;;3.80;;
10295;SDS011;5193;51.032;6.356;2023-05-10T00:17:22;4.00;;;3.70;;
10295;SDS011;5193;51.032;6.356;2023-05-10T00:19:48;3.93;;;3.63;;
10295;SDS011;5193;51.032;6.356;2023-05-10T00:22:14;4.10;;;3.80;;
10295;SDS011;5193;51.032;6.356;2023-05-10T00:24:39;4.17;;;3.87;;
10295;SDS011;5193;51.032;6.356;2023-05-10T00:27:05;4.50;;;4.10;;
10295;SDS011;5193;51.032;6.356;2023-05-10T00:29:30;4.80;;;4.40;;
10295;SDS011;5193;51.032;6.356;2023-05-10T00:31:56;4.53;;;4.13;;
10295;SDS011;5193;51.032;6.356;2023-05-10T00:34:22;4.77;;;4.37;;
10295;SDS011;5193;51.032;6.356;2023-05-10T00:36:47;4.27;;;3.87;;
10295;SDS011;5193;51.032;6.356;2023-05-10T00:39:13;4.53;;;4.13;;
10295;SDS011;5193;51.032;6.356;2023-05-10T00:41:39;5.43;;;4.93;;
10295;SDS011;5193;51.032;6.356;2023-05-10T00:44:04;4.73;;;4.33;;
10295;SDS011;5193;51.032;6.356;2023-05-10T00:46:30;4.77;;;4.37;;
10295;SDS011;5193;51.032;6.356;2023-05-10T00:48:56;5.23;;;4.83;;
10295;SDS011;5193;51.032;6.356;2023-05-10T00:51:22;5.80;;;5.20;;
10295;SDS011;5193;51.032;6.356;2023-05-10T00:53:48;5.50;;;5.00;;
10295;SDS011;5193;51.032;6.356;2023-05-10T00:56:15;4.93;;;4.53;;
10295;SDS011;5193;51.032;6.356;2023-05-10T00:58:41;4.63;;;4.23;;
10295;SDS011;5193;51.032;6.356;2023-05-10T01:01:07;5.00;;;4.50;;
10295;SDS011;5193;51.032;6.356;2023-05-10T01:03:34;5.17;;;4.50;;
10295;SDS011;5193;51.032;6.356;2023-05-10T01:06:00;4.80;;;4.33;;
10295;SDS011;5193;51.032;6.356;2023-05-10T01:08:26;5.07;;;4.57;;
10295;SDS011;5193;51.032;6.356;2023-05-10T01:10:53;5.17;;;4.77;;
10295;SDS011;5193;51.032;6.356;2023-05-10T01:13:26;4.67;;;4.27;;
10295;SDS011;5193;51.032;6.356;2023-05-10T01:16:01;4.53;;;4.13;;
10295;SDS011;5193;51.032;6.356;2023-05-10T01:18:28;4.70;;;4.30;;
10295;SDS011;5193;51.032;6.356;2023-05-10T01:21:42;4.60;;;4.20;;
10295;SDS011;5193;51.032;6.356;2023-05-10T01:26:54;5.00;;;4.60;;
10295;SDS011;5193;51.032;6.356;2023-05-10T01:29:51;4.43;;;4.03;;
10295;SDS011;5193;51.032;6.356;2023-05-10T01:32:30;4.40;;;4.00;;
10295;SDS011;5193;51.032;6.356;2023-05-10T01:40:13;4.40;;;4.00;;
10295;SDS011;5193;51.032;6.356;2023-05-10T01:42:50;4.00;;;3.70;;
10295;SDS011;5193;51.032;6.356;2023-05-10T01:45:20;3.57;;;3.27;;
10295;SDS011;5193;51.032;6.356;2023-05-10T01:47:48;4.40;;;4.00;;
10295;SDS011;5193;51.032;6.356;2023-05-10T01:50:20;4.07;;;3.67;;
10295;SDS011;5193;51.032;6.356;2023-05-10T01:52:51;3.73;;;3.43;;
10295;SDS011;5193;51.032;6.356;2023-05-10T01:55:20;3.17;;;2.87;;
10295;SDS011;5193;51.032;6.356;2023-05-10T01:57:49;3.60;;;3.30;;
10295;SDS011;5193;51.032;6.356;2023-05-10T02:00:21;4.53;;;3.17;;
10295;SDS011;5193;51.032;6.356;2023-05-10T02:02:48;3.60;;;3.30;;
10295;SDS011;5193;51.032;6.356;2023-05-10T02:05:16;3.40;;;3.10;;
10295;SDS011;5193;51.032;6.356;2023-05-10T02:07:42;3.60;;;3.30;;
10295;SDS011;5193;51.032;6.356;2023-05-10T02:10:09;4.60;;;3.37;;
10295;SDS011;5193;51.032;6.356;2023-05-10T02:12:36;3.50;;;3.20;;
10295;SDS011;5193;51.032;6.356;2023-05-10T02:15:06;3.23;;;2.93;;
10295;SDS011;5193;51.032;6.356;2023-05-10T02:17:32;3.40;;;3.10;;
10295;SDS011;5193;51.032;6.356;2023-05-10T02:20:01;3.70;;;3.40;;
10295;SDS011;5193;51.032;6.356;2023-05-10T02:22:28;3.87;;;3.37;;
10295;SDS011;5193;51.032;6.356;2023-05-10T02:24:55;3.90;;;3.47;;
10295;SDS011;5193;51.032;6.356;2023-05-10T02:27:23;3.90;;;3.50;;
10295;SDS011;5193;51.032;6.356;2023-05-10T02:29:50;4.20;;;3.70;;
10295;SDS011;5193;51.032;6.356;2023-05-10T02:32:16;5.60;;;3.97;;
10295;SDS011;5193;51.032;6.356;2023-05-10T02:34:42;4.27;;;3.87;;
10295;SDS011;5193;51.032;6.356;2023-05-10T02:37:10;5.80;;;3.60;;
10295;SDS011;5193;51.032;6.356;2023-05-10T02:39:40;5.27;;;4.37;;
10295;SDS011;5193;51.032;6.356;2023-05-10T02:42:10;4.73;;;4.30;;
10295;SDS011;5193;51.032;6.356;2023-05-10T02:44:48;5.37;;;4.80;;
10295;SDS011;5193;51.032;6.356;2023-05-10T02:47:15;6.80;;;5.90;;
10295;SDS011;5193;51.032;6.356;2023-05-10T02:49:41;7.13;;;5.77;;
10295;SDS011;5193;51.032;6.356;2023-05-10T02:52:07;6.47;;;5.77;;
10295;SDS011;5193;51.032;6.356;2023-05-10T02:54:39;7.10;;;6.40;;
10295;SDS011;5193;51.032;6.356;2023-05-10T02:57:09;8.53;;;6.53;;
10295;SDS011;5193;51.032;6.356;2023-05-10T02:59:40;8.07;;;6.53;;
10295;SDS011;5193;51.032;6.356;2023-05-10T03:02:08;6.37;;;5.77;;
10295;SDS011;5193;51.032;6.356;2023-05-10T03:04:35;7.87;;;6.33;;
10295;SDS011;5193;51.032;6.356;2023-05-10T03:07:01;6.30;;;5.43;;
10295;SDS011;5193;51.032;6.356;2023-05-10T03:09:27;6.33;;;5.43;;
10295;SDS011;5193;51.032;6.356;2023-05-10T03:14:52;6.10;;;5.50;;
10295;SDS011;5193;51.032;6.356;2023-05-10T03:17:30;8.70;;;5.70;;
10295;SDS011;5193;51.032;6.356;2023-05-10T03:20:11;6.23;;;5.00;;
10295;SDS011;5193;51.032;6.356;2023-05-10T03:22:50;6.07;;;5.40;;
10295;SDS011;5193;51.032;6.356;2023-05-10T03:25:20;5.30;;;4.53;;
10295;SDS011;5193;51.032;6.356;2023-05-10T03:27:46;5.23;;;4.70;;
10295;SDS011;5193;51.032;6.356;2023-05-10T03:30:12;7.17;;;5.00;;
10295;SDS011;5193;51.032;6.356;2023-05-10T03:32:38;4.93;;;4.00;;
10295;SDS011;5193;51.032;6.356;2023-05-10T03:35:10;4.97;;;4.47;;
10295;SDS011;5193;51.032;6.356;2023-05-10T03:37:38;4.70;;;4.20;;
10295;SDS011;5193;51.032;6.356;2023-05-10T03:40:04;4.37;;;3.97;;
10295;SDS011;5193;51.032;6.356;2023-05-10T03:42:30;4.90;;;4.40;;
10295;SDS011;5193;51.032;6.356;2023-05-10T03:44:56;5.37;;;3.80;;
10295;SDS011;5193;51.032;6.356;2023-05-10T03:47:21;4.80;;;4.07;;
10295;SDS011;5193;51.032;6.356;2023-05-10T03:49:47;5.90;;;3.60;;
10295;SDS011;5193;51.032;6.356;2023-05-10T03:52:12;6.17;;;4.20;;
10295;SDS011;5193;51.032;6.356;2023-05-10T03:54:38;4.97;;;4.23;;
10295;SDS011;5193;51.032;6.356;2023-05-10T03:57:03;6.20;;;4.00;;
10295;SDS011;5193;51.032;6.356;2023-05-10T03:59:29;4.10;;;3.70;;
10295;SDS011;5193;51.032;6.356;2023-05-10T04:01:55;4.87;;;3.80;;
10295;SDS011;5193;51.032;6.356;2023-05-10T04:04:21;4.60;;;3.87;;
10295;SDS011;5193;51.032;6.356;2023-05-10T04:06:48;5.27;;;3.50;;
10295;SDS011;5193;51.032;6.356;2023-05-10T04:09:13;4.60;;;3.57;;
10295;SDS011;5193;51.032;6.356;2023-05-10T04:11:39;4.63;;;3.67;;
10295;SDS011;5193;51.032;6.356;2023-05-10T04:14:04;5.03;;;3.70;;
10295;SDS011;5193;51.032;6.356;2023-05-10T04:16:30;4.40;;;3.97;;
10295;SDS011;5193;51.032;6.356;2023-05-10T04:18:55;5.30;;;4.20;;
10295;SDS011;5193;51.032;6.356;2023-05-10T04:21:22;5.83;;;3.93;;
10295;SDS011;5193;51.032;6.356;2023-05-10T04:23:48;6.10;;;4.13;;
10295;SDS011;5193;51.032;6.356;2023-05-10T04:26:13;5.93;;;4.67;;
10295;SDS011;5193;51.032;6.356;2023-05-10T04:28:39;7.87;;;4.93;;
10295;SDS011;5193;51.032;6.356;2023-05-10T04:31:06;5.90;;;4.47;;
10295;SDS011;5193;51.032;6.356;2023-05-10T04:33:32;5.47;;;4.73;;
10295;SDS011;5193;51.032;6.356;2023-05-10T04:35:59;5.43;;;4.60;;
10295;SDS011;5193;51.032;6.356;2023-05-10T04:38:25;5.87;;;4.67;;
10295;SDS011;5193;51.032;6.356;2023-05-10T04:40:51;6.30;;;4.50;;
10295;SDS011;5193;51.032;6.356;2023-05-10T04:43:17;5.63;;;4.60;;
10295;SDS011;5193;51.032;6.356;2023-05-10T04:45:43;8.17;;;4.80;;
10295;SDS011;5193;51.032;6.356;2023-05-10T04:48:09;5.17;;;4.50;;
10295;SDS011;5193;51.032;6.356;2023-05-10T04:50:34;6.83;;;4.60;;
10295;SDS011;5193;51.032;6.356;2023-05-10T04:53:00;6.60;;;5.20;;
10295;SDS011;5193;51.032;6.356;2023-05-10T04:55:25;6.27;;;5.17;;
10295;SDS011;5193;51.032;6.356;2023-05-10T04:57:52;7.37;;;5.60;;
10295;SDS011;5193;51.032;6.356;2023-05-10T05:00:18;9.60;;;5.77;;
10295;SDS011;5193;51.032;6.356;2023-05-10T05:02:44;8.10;;;5.53;;
10295;SDS011;5193;51.032;6.356;2023-05-10T05:05:12;6.87;;;5.63;;
10295;SDS011;5193;51.032;6.356;2023-05-10T05:07:38;9.07;;;6.30;;
10295;SDS011;5193;51.032;6.356;2023-05-10T05:10:05;8.93;;;6.50;;
10295;SDS011;5193;51.032;6.356;2023-05-10T05:12:31;8.63;;;6.60;;
10295;SDS011;5193;51.032;6.356;2023-05-10T05:14:57;8.33;;;6.60;;
10295;SDS011;5193;51.032;6.356;2023-05-10T05:17:23;9.07;;;6.67;;
10295;SDS011;5193;51.032;6.356;2023-05-10T05:19:49;9.60;;;6.83;;
10295;SDS011;5193;51.032;6.356;2023-05-10T05:22:14;7.10;;;6.13;;
10295;SDS011;5193;51.032;6.356;2023-05-10T05:24:40;10.20;;;6.67;;
10295;SDS011;5193;51.032;6.356;2023-05-10T05:27:05;8.07;;;6.67;;
10295;SDS011;5193;51.032;6.356;2023-05-10T05:29:31;7.70;;;6.43;;
10295;SDS011;5193;51.032;6.356;2023-05-10T05:31:56;13.03;;;7.23;;
10295;SDS011;5193;51.032;6.356;2023-05-10T05:34:22;10.17;;;6.67;;
10295;SDS011;5193;51.032;6.356;2023-05-10T05:36:49;10.20;;;7.17;;
10295;SDS011;5193;51.032;6.356;2023-05-10T05:39:14;8.83;;;7.13;;
10295;SDS011;5193;51.032;6.356;2023-05-10T05:41:40;9.17;;;7.53;;
10295;SDS011;5193;51.032;6.356;2023-05-10T05:44:06;11.87;;;7.73;;
10295;SDS011;5193;51.032;6.356;2023-05-10T05:46:31;10.90;;;7.97;;
10295;SDS011;5193;51.032;6.356;2023-05-10T05:48:57;10.50;;;7.43;;
10295;SDS011;5193;51.032;6.356;2023-05-10T05:51:22;11.33;;;7.80;;
10295;SDS011;5193;51.032;6.356;2023-05-10T05:53:48;8.70;;;6.87;;
10295;SDS011;5193;51.032;6.356;2023-05-10T05:56:13;10.37;;;7.33;;
10295;SDS011;5193;51.032;6.356;2023-05-10T05:58:39;12.63;;;7.63;;
10295;SDS011;5193;51.032;6.356;2023-05-10T06:01:05;10.97;;;7.60;;
10295;SDS011;5193;51.032;6.356;2023-05-10T06:03:30;12.33;;;8.67;;
10295;SDS011;5193;51.032;6.356;2023-05-10T06:05:56;9.83;;;7.77;;
10295;SDS011;5193;51.032;6.356;2023-05-10T06:08:21;8.80;;;7.40;;
10295;SDS011;5193;51.032;6.356;2023-05-10T06:10:47;11.63;;;8.50;;
10295;SDS011;5193;51.032;6.356;2023-05-10T06:13:13;10.73;;;7.93;;
10295;SDS011;5193;51.032;6.356;2023-05-10T06:15:38;11.90;;;7.53;;
10295;SDS011;5193;51.032;6.356;2023-05-10T06:18:04;12.47;;;8.90;;
10295;SDS011;5193;51.032;6.356;2023-05-10T06:20:30;10.60;;;8.33;;
10295;SDS011;5193;51.032;6.356;2023-05-10T06:22:56;12.50;;;8.23;;
10295;SDS011;5193;51.032;6.356;2023-05-10T06:25:22;11.53;;;8.43;;
10295;SDS011;5193;51.032;6.356;2023-05-10T06:27:48;11.83;;;8.13;;
10295;SDS011;5193;51.032;6.356;2023-05-10T06:30:14;9.90;;;7.83;;
10295;SDS011;5193;51.032;6.356;2023-05-10T06:32:40;10.67;;;8.53;;
10295;SDS011;5193;51.032;6.356;2023-05-10T06:35:06;10.47;;;8.30;;
10295;SDS011;5193;51.032;6.356;2023-05-10T06:37:32;9.70;;;8.20;;
10295;SDS011;5193;51.032;6.356;2023-05-10T06:39:57;11.53;;;8.20;;
10295;SDS011;5193;51.032;6.356;2023-05-10T06:42:23;13.93;;;7.87;;
10295;SDS011;5193;51.032;6.356;2023-05-10T06:44:50;12.40;;;7.80;;
10295;SDS011;5193;51.032;6.356;2023-05-10T06:47:16;10.43;;;8.00;;
10295;SDS011;5193;51.032;6.356;2023-05-10T06:49:42;11.17;;;7.90;;
10295;SDS011;5193;51.032;6.356;2023-05-10T06:52:07;12.50;;;8.50;;
10295;SDS011;5193;51.032;6.356;2023-05-10T06:54:33;9.63;;;8.00;;
10295;SDS011;5193;51.032;6.356;2023-05-10T06:56:59;10.97;;;8.80;;
10295;SDS011;5193;51.032;6.356;2023-05-10T06:59:24;10.07;;;7.93;;
10295;SDS011;5193;51.032;6.356;2023-05-10T07:01:50;10.70;;;8.53;;
10295;SDS011;5193;51.032;6.356;2023-05-10T07:04:16;13.13;;;8.13;;
10295;SDS011;5193;51.032;6.356;2023-05-10T07:06:42;12.47;;;8.77;;
10295;SDS011;5193;51.032;6.356;2023-05-10T07:09:08;12.23;;;8.67;;
10295;SDS011;5193;51.032;6.356;2023-05-10T07:11:34;11.20;;;8.27;;
10295;SDS011;5193;51.032;6.356;2023-05-10T07:13:59;12.37;;;9.77;;
10295;SDS011;5193;51.032;6.356;2023-05-10T07:16:25;12.93;;;10.33;;
10295;SDS011;5193;51.032;6.356;2023-05-10T07:18:51;13.03;;;9.47;;
10295;SDS011;5193;51.032;6.356;2023-05-10T07:21:17;15.93;;;10.73;;
10295;SDS011;5193;51.032;6.356;2023-05-10T07:23:43;14.70;;;10.50;;
10295;SDS011;5193;51.032;6.356;2023-05-10T07:26:09;15.73;;;11.33;;
10295;SDS011;5193;51.032;6.356;2023-05-10T07:28:35;14.97;;;11.20;;
10295;SDS011;5193;51.032;6.356;2023-05-10T07:31:02;16.90;;;11.67;;
10295;SDS011;5193;51.032;6.356;2023-05-10T07:33:28;14.60;;;10.93;;
10295;SDS011;5193;51.032;6.356;2023-05-10T07:35:53;16.53;;;11.27;;
10295;SDS011;5193;51.032;6.356;2023-05-10T07:38:19;16.73;;;11.07;;
10295;SDS011;5193;51.032;6.356;2023-05-10T07:40:44;12.33;;;9.90;;
10295;SDS011;5193;51.032;6.356;2023-05-10T07:43:10;14.50;;;10.77;;
10295;SDS011;5193;51.032;6.356;2023-05-10T07:45:35;15.40;;;10.80;;
10295;SDS011;5193;51.032;6.356;2023-05-10T07:48:01;18.27;;;10.73;;
10295;SDS011;5193;51.032;6.356;2023-05-10T07:50:27;14.27;;;10.53;;
10295;SDS011;5193;51.032;6.356;2023-05-10T07:52:52;15.97;;;11.67;;
10295;SDS011;5193;51.032;6.356;2023-05-10T07:55:18;14.30;;;10.70;;
10295;SDS011;5193;51.032;6.356;2023-05-10T07:57:46;16.10;;;10.30;;
10295;SDS011;5193;51.032;6.356;2023-05-10T08:00:16;15.20;;;10.20;;
10295;SDS011;5193;51.032;6.356;2023-05-10T08:02:43;15.60;;;10.73;;
10295;SDS011;5193;51.032;6.356;2023-05-10T08:05:08;14.10;;;9.70;;
10295;SDS011;5193;51.032;6.356;2023-05-10T08:07:34;15.97;;;9.17;;
10295;SDS011;5193;51.032;6.356;2023-05-10T08:10:00;12.33;;;9.50;;
10295;SDS011;5193;51.032;6.356;2023-05-10T08:12:26;15.30;;;9.20;;
10295;SDS011;5193;51.032;6.356;2023-05-10T08:14:52;11.23;;;8.40;;
10295;SDS011;5193;51.032;6.356;2023-05-10T08:17:17;10.30;;;8.57;;
10295;SDS011;5193;51.032;6.356;2023-05-10T08:19:43;11.37;;;8.57;;
10295;SDS011;5193;51.032;6.356;2023-05-10T08:22:08;11.00;;;8.10;;
10295;SDS011;5193;51.032;6.356;2023-05-10T08:24:34;11.03;;;8.53;;
10295;SDS011;5193;51.032;6.356;2023-05-10T08:27:03;11.70;;;8.03;;
10295;SDS011;5193;51.032;6.356;2023-05-10T08:29:29;13.87;;;8.77;;
10295;SDS011;5193;51.032;6.356;2023-05-10T08:31:55;10.33;;;8.47;;
10295;SDS011;5193;51.032;6.356;2023-05-10T08:34:21;11.77;;;8.17;;
10295;SDS011;5193;51.032;6.356;2023-05-10T08:36:46;10.97;;;8.03;;
10295;SDS011;5193;51.032;6.356;2023-05-10T08:39:12;11.70;;;9.20;;
10295;SDS011;5193;51.032;6.356;2023-05-10T08:41:38;10.80;;;9.10;;
10295;SDS011;5193;51.032;6.356;2023-05-10T08:44:05;12.73;;;9.77;;
10295;SDS011;5193;51.032;6.356;2023-05-10T08:46:33;14.20;;;10.20;;
10295;SDS011;5193;51.032;6.356;2023-05-10T08:49:01;13.40;;;9.60;;
10295;SDS011;5193;51.032;6.356;2023-05-10T08:51:29;14.63;;;10.50;;
10295;SDS011;5193;51.032;6.356;2023-05-10T08:54:00;13.10;;;9.23;;
10295;SDS011;5193;51.032;6.356;2023-05-10T08:56:27;15.90;;;10.57;;
10295;SDS011;5193;51.032;6.356;2023-05-10T08:58:53;12.37;;;9.90;;
10295;SDS011;5193;51.032;6.356;2023-05-10T09:01:20;12.73;;;8.97;;
10295;SDS011;5193;51.032;6.356;2023-05-10T09:03:46;14.70;;;8.73;;
10295;SDS011;5193;51.032;6.356;2023-05-10T09:06:14;12.83;;;9.20;;
10295;SDS011;5193;51.032;6.356;2023-05-10T09:08:41;13.87;;;9.63;;
10295;SDS011;5193;51.032;6.356;2023-05-10T09:11:08;10.63;;;8.30;;
10295;SDS011;5193;51.032;6.356;2023-05-10T09:13:35;13.10;;;9.40;;
10295;SDS011;5193;51.032;6.356;2023-05-10T09:16:01;11.87;;;8.90;;
10295;SDS011;5193;51.032;6.356;2023-05-10T09:18:27;11.83;;;9.07;;
10295;SDS011;5193;51.032;6.356;2023-05-10T09:20:53;10.43;;;7.13;;
10295;SDS011;5193;51.032;6.356;2023-05-10T09:23:19;9.90;;;6.93;;
10295;SDS011;5193;51.032;6.356;2023-05-10T09:25:45;8.77;;;5.93;;
10295;SDS011;5193;51.032;6.356;2023-05-10T09:28:10;8.10;;;5.90;;
10295;SDS011;5193;51.032;6.356;2023-05-10T09:30:36;7.00;;;5.40;;
10295;SDS011;5193;51.032;6.356;2023-05-10T09:33:02;9.47;;;5.63;;
10295;SDS011;5193;51.032;6.356;2023-05-10T09:35:29;8.17;;;5.87;;
10295;SDS011;5193;51.032;6.356;2023-05-10T09:37:56;7.30;;;5.77;;
10295;SDS011;5193;51.032;6.356;2023-05-10T09:40:24;8.43;;;5.43;;
10295;SDS011;5193;51.032;6.356;2023-05-10T09:45:19;7.60;;;5.60;;
10295;SDS011;5193;51.032;6.356;2023-05-10T09:47:46;7.60;;;5.50;;
10295;SDS011;5193;51.032;6.356;2023-05-10T09:50:12;6.67;;;5.57;;
10295;SDS011;5193;51.032;6.356;2023-05-10T09:52:54;8.87;;;6.30;;
10295;SDS011;5193;51.032;6.356;2023-05-10T09:55:25;7.60;;;5.80;;
10295;SDS011;5193;51.032;6.356;2023-05-10T09:58:02;7.17;;;5.43;;
10295;SDS011;5193;51.032;6.356;2023-05-10T10:00:34;7.63;;;5.40;;
10295;SDS011;5193;51.032;6.356;2023-05-10T10:03:01;8.00;;;5.80;;
10295;SDS011;5193;51.032;6.356;2023-05-10T10:05:31;7.40;;;5.77;;
10295;SDS011;5193;51.032;6.356;2023-05-10T10:07:59;7.30;;;5.47;;
10295;SDS011;5193;51.032;6.356;2023-05-10T10:10:26;7.07;;;5.50;;
10295;SDS011;5193;51.032;6.356;2023-05-10T10:12:52;6.77;;;5.60;;
10295;SDS011;5193;51.032;6.356;2023-05-10T10:15:19;5.80;;;5.07;;
10295;SDS011;5193;51.032;6.356;2023-05-10T10:17:46;6.83;;;4.97;;
10295;SDS011;5193;51.032;6.356;2023-05-10T10:20:13;6.50;;;4.80;;
10295;SDS011;5193;51.032;6.356;2023-05-10T10:22:39;4.67;;;4.27;;
10295;SDS011;5193;51.032;6.356;2023-05-10T10:25:05;5.20;;;4.10;;
10295;SDS011;5193;51.032;6.356;2023-05-10T10:27:45;5.63;;;4.10;;
10295;SDS011;5193;51.032;6.356;2023-05-10T10:30:28;4.73;;;4.30;;
10295;SDS011;5193;51.032;6.356;2023-05-10T10:35:31;4.90;;;4.40;;
10295;SDS011;5193;51.032;6.356;2023-05-10T10:37:57;5.50;;;4.90;;
10295;SDS011;5193;51.032;6.356;2023-05-10T10:40:24;5.37;;;4.30;;
10295;SDS011;5193;51.032;6.356;2023-05-10T10:42:53;4.70;;;4.20;;
10295;SDS011;5193;51.032;6.356;2023-05-10T10:45:20;5.03;;;3.80;;
10295;SDS011;5193;51.032;6.356;2023-05-10T10:47:46;4.17;;;3.70;;
10295;SDS011;5193;51.032;6.356;2023-05-10T10:50:12;4.60;;;4.20;;
10295;SDS011;5193;51.032;6.356;2023-05-10T10:52:38;4.80;;;4.30;;
10295;SDS011;5193;51.032;6.356;2023-05-10T10:55:19;4.07;;;3.27;;
10295;SDS011;5193;51.032;6.356;2023-05-10T10:57:50;3.70;;;3.17;;
10295;SDS011;5193;51.032;6.356;2023-05-10T11:00:20;3.00;;;2.70;;
10295;SDS011;5193;51.032;6.356;2023-05-10T11:02:51;3.40;;;3.10;;
10295;SDS011;5193;51.032;6.356;2023-05-10T11:05:50;3.30;;;2.80;;
10295;SDS011;5193;51.032;6.356;2023-05-10T11:08:29;3.10;;;2.50;;
10295;SDS011;5193;51.032;6.356;2023-05-10T11:16:17;2.30;;;2.03;;
10295;SDS011;5193;51.032;6.356;2023-05-10T11:21:29;2.47;;;2.00;;
10295;SDS011;5193;51.032;6.356;2023-05-10T11:23:56;2.50;;;2.30;;
10295;SDS011;5193;51.032;6.356;2023-05-10T11:26:23;2.40;;;2.10;;
10295;SDS011;5193;51.032;6.356;2023-05-10T11:28:51;2.30;;;1.97;;
10295;SDS011;5193;51.032;6.356;2023-05-10T11:31:20;2.33;;;2.10;;
10295;SDS011;5193;51.032;6.356;2023-05-10T11:33:53;2.23;;;2.03;;
10295;SDS011;5193;51.032;6.356;2023-05-10T11:36:21;3.23;;;2.20;;
10295;SDS011;5193;51.032;6.356;2023-05-10T11:38:48;2.50;;;2.27;;
10295;SDS011;5193;51.032;6.356;2023-05-10T11:41:15;2.20;;;2.00;;
10295;SDS011;5193;51.032;6.356;2023-05-10T11:43:43;2.30;;;2.10;;
10295;SDS011;5193;51.032;6.356;2023-05-10T11:46:12;2.83;;;2.50;;
10295;SDS011;5193;51.032;6.356;2023-05-10T11:48:38;3.80;;;2.90;;
10295;SDS011;5193;51.032;6.356;2023-05-10T11:51:04;3.17;;;2.87;;
10295;SDS011;5193;51.032;6.356;2023-05-10T11:53:31;2.90;;;2.60;;
10295;SDS011;5193;51.032;6.356;2023-05-10T11:56:07;2.80;;;2.60;;
10295;SDS011;5193;51.032;6.356;2023-05-10T11:58:35;3.97;;;3.30;;
10295;SDS011;5193;51.032;6.356;2023-05-10T12:01:02;2.70;;;2.43;;
10295;SDS011;5193;51.032;6.356;2023-05-10T12:03:28;2.30;;;2.10;;
10295;SDS011;5193;51.032;6.356;2023-05-10T12:05:55;2.63;;;2.23;;
10295;SDS011;5193;51.032;6.356;2023-05-10T12:08:22;2.60;;;2.27;;
10295;SDS011;5193;51.032;6.356;2023-05-10T12:10:52;3.43;;;2.50;;
10295;SDS011;5193;51.032;6.356;2023-05-10T12:13:19;3.03;;;2.30;;
10295;SDS011;5193;51.032;6.356;2023-05-10T12:15:46;2.33;;;2.13;;
10295;SDS011;5193;51.032;6.356;2023-05-10T12:18:12;2.30;;;2.10;;
10295;SDS011;5193;51.032;6.356;2023-05-10T12:20:39;2.60;;;2.40;;
10295;SDS011;5193;51.032;6.356;2023-05-10T12:23:05;2.50;;;2.30;;
10295;SDS011;5193;51.032;6.356;2023-05-10T12:25:33;2.40;;;2.20;;
10295;SDS011;5193;51.032;6.356;2023-05-10T12:28:02;2.17;;;1.97;;
10295;SDS011;5193;51.032;6.356;2023-05-10T12:30:29;2.37;;;2.07;;
10295;SDS011;5193;51.032;6.356;2023-05-10T12:33:00;1.80;;;1.70;;
10295;SDS011;5193;51.032;6.356;2023-05-10T12:35:31;2.13;;;1.93;;
10295;SDS011;5193;51.032;6.356;2023-05-10T12:37:57;1.93;;;1.83;;
10295;SDS011;5193;51.032;6.356;2023-05-10T12:40:23;2.10;;;2.00;;
10295;SDS011;5193;51.032;6.356;2023-05-10T12:42:49;1.87;;;1.70;;
10295;SDS011;5193;51.032;6.356;2023-05-10T12:45:16;1.60;;;1.50;;
10295;SDS011;5193;51.032;6.356;2023-05-10T12:47:43;2.17;;;1.80;;
10295;SDS011;5193;51.032;6.356;2023-05-10T12:50:08;2.00;;;1.40;;
10295;SDS011;5193;51.032;6.356;2023-05-10T12:52:35;1.67;;;1.57;;
10295;SDS011;5193;51.032;6.356;2023-05-10T12:55:01;2.07;;;1.80;;
10295;SDS011;5193;51.032;6.356;2023-05-10T12:57:28;2.20;;;1.70;;
10295;SDS011;5193;51.032;6.356;2023-05-10T12:59:54;1.40;;;1.30;;
10295;SDS011;5193;51.032;6.356;2023-05-10T13:02:20;1.73;;;1.33;;
10295;SDS011;5193;51.032;6.356;2023-05-10T13:04:47;2.00;;;1.80;;
10295;SDS011;5193;51.032;6.356;2023-05-10T13:07:13;1.30;;;1.20;;
10295;SDS011;5193;51.032;6.356;2023-05-10T13:09:39;1.77;;;1.67;;
10295;SDS011;5193;51.032;6.356;2023-05-10T13:12:04;1.70;;;1.60;;
10295;SDS011;5193;51.032;6.356;2023-05-10T13:14:30;2.33;;;1.47;;
10295;SDS011;5193;51.032;6.356;2023-05-10T13:16:56;1.50;;;1.40;;
10295;SDS011;5193;51.032;6.356;2023-05-10T13:19:21;1.70;;;1.60;;
10295;SDS011;5193;51.032;6.356;2023-05-10T13:21:47;1.63;;;1.53;;
10295;SDS011;5193;51.032;6.356;2023-05-10T13:24:13;1.77;;;1.50;;
10295;SDS011;5193;51.032;6.356;2023-05-10T13:26:41;1.73;;;1.60;;
10295;SDS011;5193;51.032;6.356;2023-05-10T13:29:07;1.60;;;1.50;;
10295;SDS011;5193;51.032;6.356;2023-05-10T13:31:33;2.03;;;1.80;;
10295;SDS011;5193;51.032;6.356;2023-05-10T13:33:59;1.80;;;1.70;;
10295;SDS011;5193;51.032;6.356;2023-05-10T13:36:25;1.60;;;1.33;;
10295;SDS011;5193;51.032;6.356;2023-05-10T13:38:51;1.50;;;1.40;;
10295;SDS011;5193;51.032;6.356;2023-05-10T13:41:17;1.87;;;1.63;;
10295;SDS011;5193;51.032;6.356;2023-05-10T13:43:42;1.90;;;1.80;;
10295;SDS011;5193;51.032;6.356;2023-05-10T13:46:08;1.70;;;1.60;;
10295;SDS011;5193;51.032;6.356;2023-05-10T13:48:33;2.10;;;1.90;;
10295;SDS011;5193;51.032;6.356;2023-05-10T13:50:59;1.80;;;1.70;;
10295;SDS011;5193;51.032;6.356;2023-05-10T13:53:24;2.20;;;2.00;;
10295;SDS011;5193;51.032;6.356;2023-05-10T13:55:50;3.27;;;1.87;;
10295;SDS011;5193;51.032;6.356;2023-05-10T13:58:16;4.30;;;2.00;;
10295;SDS011;5193;51.032;6.356;2023-05-10T14:00:41;2.30;;;2.00;;
10295;SDS011;5193;51.032;6.356;2023-05-10T14:03:07;2.03;;;1.90;;
10295;SDS011;5193;51.032;6.356;2023-05-10T14:05:35;2.27;;;2.07;;
10295;SDS011;5193;51.032;6.356;2023-05-10T14:08:01;1.80;;;1.70;;
10295;SDS011;5193;51.032;6.356;2023-05-10T14:10:27;1.60;;;1.50;;
10295;SDS011;5193;51.032;6.356;2023-05-10T14:12:53;1.77;;;1.50;;
10295;SDS011;5193;51.032;6.356;2023-05-10T14:15:18;1.37;;;1.20;;
10295;SDS011;5193;51.032;6.356;2023-05-10T14:17:44;1.53;;;1.30;;
10295;SDS011;5193;51.032;6.356;2023-05-10T14:20:10;1.60;;;1.50;;
10295;SDS011;5193;51.032;6.356;2023-05-10T14:22:36;2.20;;;1.50;;
10295;SDS011;5193;51.032;6.356;2023-05-10T14:25:01;1.60;;;1.40;;
10295;SDS011;5193;51.032;6.356;2023-05-10T14:27:27;2.20;;;1.50;;
10295;SDS011;5193;51.032;6.356;2023-05-10T14:29:52;1.93;;;1.67;;
10295;SDS011;5193;51.032;6.356;2023-05-10T14:32:19;1.60;;;1.50;;
10295;SDS011;5193;51.032;6.356;2023-05-10T14:34:44;1.90;;;1.60;;
10295;SDS011;5193;51.032;6.356;2023-05-10T14:37:10;1.53;;;1.30;;
10295;SDS011;5193;51.032;6.356;2023-05-10T14:39:36;1.67;;;1.50;;
10295;SDS011;5193;51.032;6.356;2023-05-10T14:42:02;1.30;;;1.20;;
10295;SDS011;5193;51.032;6.356;2023-05-10T14:44:28;2.13;;;1.40;;
10295;SDS011;5193;51.032;6.356;2023-05-10T14:46:53;1.40;;;1.30;;
10295;SDS011;5193;51.032;6.356;2023-05-10T14:49:20;1.50;;;1.33;;
10295;SDS011;5193;51.032;6.356;2023-05-10T14:51:47;1.30;;;1.10;;
10295;SDS011;5193;51.032;6.356;2023-05-10T14:54:13;1.23;;;1.10;;
10295;SDS011;5193;51.032;6.356;2023-05-10T14:56:38;1.40;;;1.30;;
10295;SDS011;5193;51.032;6.356;2023-05-10T14:59:06;1.50;;;1.40;;
10295;SDS011;5193;51.032;6.356;2023-05-10T15:01:32;1.30;;;1.20;;
10295;SDS011;5193;51.032;6.356;2023-05-10T15:03:58;1.40;;;1.30;;
10295;SDS011;5193;51.032;6.356;2023-05-10T15:06:24;1.20;;;1.10;;
10295;SDS011;5193;51.032;6.356;2023-05-10T15:08:56;2.23;;;1.43;;
10295;SDS011;5193;51.032;6.356;2023-05-10T15:11:22;1.70;;;1.43;;
10295;SDS011;5193;51.032;6.356;2023-05-10T15:13:47;1.47;;;1.37;;
10295;SDS011;5193;51.032;6.356;2023-05-10T15:16:13;2.07;;;1.30;;
10295;SDS011;5193;51.032;6.356;2023-05-10T15:18:38;2.43;;;1.30;;
10295;SDS011;5193;51.032;6.356;2023-05-10T15:21:04;1.63;;;1.20;;